Time;durP1;ratioP1;P1;durP2;ratioP2;P2;SDS_P1;SDS_P2;PMS_P1;PMS_P2;Temp;Humidity;BMP_temperature;BMP_pressure;BME280_temperature;BME280_humidity;BME280_pressure;Samples;Min_cycle;Max_cycle;Signal;HPM_P1;HPM_P2
2023/07/15 00:02:20;;;;;;;6.32;2.78;;;;;;;;;;5084606;28;20047;-73
2023/07/15 00:04:57;;;;;;;4.20;2.42;;;;;;;;;;5084590;28;20044;-73
2023/07/15 00:07:28;;;;;;;4.88;2.72;;;;;;;;;;5087985;28;20504;-73
2023/07/15 00:10:00;;;;;;;7.93;2.75;;;;;;;;;;5088439;28;20055;-73
2023/07/15 00:12:29;;;;;;;3.08;1.92;;;;;;;;;;5088372;28;20044;-72
2023/07/15 00:15:00;;;;;;;3.85;2.33;;;;;;;;;;5088456;28;20048;-73
2023/07/15 00:17:31;;;;;;;6.28;2.90;;;;;;;;;;5088768;28;20047;-73
2023/07/15 00:20:03;;;;;;;4.38;2.72;;;;;;;;;;5088546;28;20048;-73
2023/07/15 00:22:35;;;;;;;8.98;3.45;;;;;;;;;;5088536;28;20502;-72
2023/07/15 00:25:10;;;;;;;10.95;5.40;;;;;;;;;;5088522;28;20071;-73
2023/07/15 00:27:45;;;;;;;8.50;4.80;;;;;;;;;;5088693;28;20525;-73
2023/07/15 00:30:19;;;;;;;10.13;4.43;;;;;;;;;;5088390;28;20052;-74
2023/07/15 00:32:51;;;;;;;11.48;5.25;;;;;;;;;;5087877;28;20434;-77
2023/07/15 00:35:31;;;;;;;9.02;4.10;;;;;;;;;;5086895;28;20047;-73
2023/07/15 00:38:02;;;;;;;8.13;3.20;;;;;;;;;;5087891;28;20047;-74
2023/07/15 00:40:43;;;;;;;6.72;3.40;;;;;;;;;;5086462;28;20056;-72
2023/07/15 00:43:50;;;;;;;6.03;3.20;;;;;;;;;;5088394;28;20067;-74
2023/07/15 00:46:22;;;;;;;10.18;5.32;;;;;;;;;;5086133;28;20052;-73
2023/07/15 00:48:56;;;;;;;12.30;6.55;;;;;;;;;;5088011;28;20040;-74
2023/07/15 00:51:29;;;;;;;7.18;4.20;;;;;;;;;;5088017;28;20421;-72
2023/07/15 00:54:01;;;;;;;11.38;4.32;;;;;;;;;;5087276;28;20088;-74
2023/07/15 00:56:35;;;;;;;8.10;4.85;;;;;;;;;;5083995;28;20502;-72
2023/07/15 00:59:08;;;;;;;6.05;3.75;;;;;;;;;;5088476;28;20052;-73
2023/07/15 01:01:40;;;;;;;7.60;4.80;;;;;;;;;;5087764;28;20402;-73
2023/07/15 01:04:10;;;;;;;9.30;5.82;;;;;;;;;;5083956;28;20445;-72
2023/07/15 01:06:45;;;;;;;6.85;4.03;;;;;;;;;;5086748;28;20040;-73
2023/07/15 01:09:17;;;;;;;5.78;3.33;;;;;;;;;;5088064;28;20052;-72
2023/07/15 01:11:50;;;;;;;4.75;3.38;;;;;;;;;;5087861;28;20052;-73
2023/07/15 01:14:20;;;;;;;5.75;2.85;;;;;;;;;;5086835;28;20048;-74
2023/07/15 01:16:52;;;;;;;3.08;2.35;;;;;;;;;;5087825;28;20414;-73
2023/07/15 01:19:23;;;;;;;8.68;2.70;;;;;;;;;;5084596;28;20051;-73
2023/07/15 01:21:54;;;;;;;7.10;3.25;;;;;;;;;;5087248;28;20048;-73
2023/07/15 01:24:26;;;;;;;10.20;4.22;;;;;;;;;;5087339;28;20040;-73
2023/07/15 01:27:08;;;;;;;7.47;4.90;;;;;;;;;;5085724;28;20051;-73
2023/07/15 01:29:39;;;;;;;7.63;4.72;;;;;;;;;;5087433;28;20044;-78
2023/07/15 01:32:09;;;;;;;7.75;4.75;;;;;;;;;;5087592;28;20036;-72
2023/07/15 01:34:40;;;;;;;9.55;4.72;;;;;;;;;;5087439;28;20055;-73
2023/07/15 01:37:11;;;;;;;7.45;4.40;;;;;;;;;;5087496;28;20048;-73
2023/07/15 01:39:41;;;;;;;10.82;4.30;;;;;;;;;;5085140;28;20058;-73
2023/07/15 01:42:12;;;;;;;8.40;4.35;;;;;;;;;;5087094;28;20044;-74
2023/07/15 01:44:41;;;;;;;12.43;6.55;;;;;;;;;;5086809;28;20406;-73
2023/07/15 01:47:13;;;;;;;9.02;5.75;;;;;;;;;;5086085;28;20047;-72
2023/07/15 01:49:45;;;;;;;8.02;5.43;;;;;;;;;;5087360;28;20040;-73
2023/07/15 01:52:15;;;;;;;11.23;5.57;;;;;;;;;;5086775;28;20044;-73
2023/07/15 01:54:45;;;;;;;13.80;7.07;;;;;;;;;;5085064;28;20047;-72
2023/07/15 01:57:15;;;;;;;13.05;6.65;;;;;;;;;;5086475;28;20044;-73
2023/07/15 01:59:46;;;;;;;10.23;5.82;;;;;;;;;;5084997;28;20048;-73
2023/07/15 02:02:18;;;;;;;8.60;4.93;;;;;;;;;;5085361;28;20063;-71
2023/07/15 02:04:49;;;;;;;12.48;4.50;;;;;;;;;;5086747;28;20056;-73
2023/07/15 02:07:19;;;;;;;12.25;4.55;;;;;;;;;;5084754;28;20051;-73
2023/07/15 02:09:50;;;;;;;11.13;4.05;;;;;;;;;;5086346;28;20413;-73
2023/07/15 02:12:21;;;;;;;11.25;4.22;;;;;;;;;;5084527;28;20063;-73
2023/07/15 02:14:52;;;;;;;6.03;4.00;;;;;;;;;;5084306;28;20052;-73
2023/07/15 02:17:23;;;;;;;7.35;4.00;;;;;;;;;;5084141;28;20051;-72
2023/07/15 02:19:57;;;;;;;6.95;4.15;;;;;;;;;;5084753;28;20087;-73
2023/07/15 02:22:28;;;;;;;6.80;4.05;;;;;;;;;;5084598;28;20052;-73
2023/07/15 02:25:06;;;;;;;6.90;4.45;;;;;;;;;;5086357;28;20040;-73
2023/07/15 02:27:36;;;;;;;8.60;4.40;;;;;;;;;;5085961;28;20064;-73
2023/07/15 02:30:09;;;;;;;8.20;4.40;;;;;;;;;;5086511;28;20055;-72
2023/07/15 02:32:43;;;;;;;8.32;4.03;;;;;;;;;;5086376;28;20048;-72
2023/07/15 02:35:15;;;;;;;9.00;4.50;;;;;;;;;;5084614;28;20055;-72
2023/07/15 02:37:45;;;;;;;8.82;4.20;;;;;;;;;;5086699;28;20075;-72
2023/07/15 02:40:17;;;;;;;7.50;4.07;;;;;;;;;;5086130;28;20048;-72
2023/07/15 02:42:50;;;;;;;5.78;3.80;;;;;;;;;;5083784;28;20059;-72
2023/07/15 02:45:21;;;;;;;5.57;3.55;;;;;;;;;;5086043;28;20044;-72
2023/07/15 02:47:51;;;;;;;8.82;4.22;;;;;;;;;;5085845;28;20056;-73
2023/07/15 02:50:21;;;;;;;10.13;3.85;;;;;;;;;;5084679;28;20048;-73
2023/07/15 02:52:51;;;;;;;;;;;;;;;;;;5086228;28;20055;-72
2023/07/15 02:55:25;;;;;;;6.68;3.53;;;;;;;;;;5083341;28;19931;-72
2023/07/15 02:57:56;;;;;;;6.10;3.42;;;;;;;;;;5084208;28;20063;-73
2023/07/15 03:00:27;;;;;;;6.50;3.67;;;;;;;;;;5085532;28;20067;-75
2023/07/15 03:03:00;;;;;;;8.80;4.18;;;;;;;;;;5083931;28;20055;-72
2023/07/15 03:05:32;;;;;;;6.15;3.45;;;;;;;;;;5084759;28;20063;-72
2023/07/15 03:08:03;;;;;;;7.60;3.92;;;;;;;;;;5085266;28;20052;-73
2023/07/15 03:10:34;;;;;;;6.57;3.63;;;;;;;;;;5085838;28;20051;-73
2023/07/15 03:13:04;;;;;;;6.70;4.00;;;;;;;;;;5085411;28;20040;-73
2023/07/15 03:15:35;;;;;;;5.13;3.53;;;;;;;;;;5083443;28;20526;-73
2023/07/15 03:18:06;;;;;;;6.45;3.13;;;;;;;;;;5083454;28;20051;-73
2023/07/15 03:20:37;;;;;;;4.85;2.75;;;;;;;;;;5085297;28;20517;-72
2023/07/15 03:23:08;;;;;;;4.70;2.83;;;;;;;;;;5085563;28;20044;-73
2023/07/15 03:25:38;;;;;;;7.32;3.38;;;;;;;;;;5085697;28;20059;-73
2023/07/15 03:28:08;;;;;;;;;;;;;;;;;;5086402;28;20063;-73
2023/07/15 03:30:38;;;;;;;5.13;3.17;;;;;;;;;;5085070;28;19935;-73
2023/07/15 03:33:08;;;;;;;4.47;3.20;;;;;;;;;;5084999;28;20497;-73
2023/07/15 03:35:38;;;;;;;;;;;;;;;;;;5085382;28;20418;-72
2023/07/15 03:38:10;;;;;;;5.68;2.90;;;;;;;;;;5083868;28;20757;-73
2023/07/15 03:40:42;;;;;;;7.45;2.92;;;;;;;;;;5084616;28;20055;-73
2023/07/15 03:43:12;;;;;;;6.85;3.30;;;;;;;;;;5084990;28;20056;-73
2023/07/15 03:45:43;;;;;;;6.10;3.30;;;;;;;;;;5085450;28;20047;-73
2023/07/15 03:48:13;;;;;;;5.18;2.88;;;;;;;;;;5085164;28;20048;-73
2023/07/15 03:50:47;;;;;;;4.50;2.97;;;;;;;;;;5084855;28;20048;-72
2023/07/15 03:53:18;;;;;;;8.73;4.50;;;;;;;;;;5085157;28;20048;-73
2023/07/15 03:55:48;;;;;;;8.82;5.45;;;;;;;;;;5084449;28;20055;-72
2023/07/15 03:58:18;;;;;;;11.43;5.93;;;;;;;;;;5084802;28;20048;-73
2023/07/15 04:00:50;;;;;;;8.27;4.90;;;;;;;;;;5084883;28;20048;-73
2023/07/15 04:03:21;;;;;;;16.50;8.82;;;;;;;;;;5085023;28;20506;-72
2023/07/15 04:05:51;;;;;;;8.70;4.05;;;;;;;;;;5084712;28;20044;-73
2023/07/15 04:08:21;;;;;;;6.85;3.85;;;;;;;;;;5084331;28;20075;-73
2023/07/15 04:10:51;;;;;;;9.35;6.32;;;;;;;;;;5084908;28;20048;-72
2023/07/15 04:13:23;;;;;;;16.88;11.18;;;;;;;;;;5084575;28;20044;-73
2023/07/15 04:15:53;;;;;;;20.75;12.00;;;;;;;;;;5084588;28;20039;-73
2023/07/15 04:18:23;;;;;;;15.35;10.63;;;;;;;;;;5084957;28;20386;-74
2023/07/15 04:20:53;;;;;;;12.77;8.05;;;;;;;;;;5082434;28;20398;-74
2023/07/15 04:23:23;;;;;;;10.15;7.50;;;;;;;;;;5083276;28;20059;-73
2023/07/15 04:25:54;;;;;;;;;;;;;;;;;;5085394;28;20044;-73
2023/07/15 04:28:24;;;;;;;7.72;5.15;;;;;;;;;;5083872;28;19924;-73
2023/07/15 04:30:55;;;;;;;12.40;4.93;;;;;;;;;;5081345;28;20044;-73
2023/07/15 04:33:26;;;;;;;6.90;4.13;;;;;;;;;;5081941;28;20048;-73
2023/07/15 04:35:57;;;;;;;8.30;4.20;;;;;;;;;;5082070;28;20055;-72
2023/07/15 04:38:27;;;;;;;5.47;3.28;;;;;;;;;;5082001;28;20051;-74
2023/07/15 04:40:58;;;;;;;4.75;3.35;;;;;;;;;;5081750;28;20052;-73
2023/07/15 04:43:29;;;;;;;5.93;3.10;;;;;;;;;;5081471;28;20052;-74
2023/07/15 04:46:01;;;;;;;7.05;3.63;;;;;;;;;;5081470;28;20417;-73
2023/07/15 04:48:31;;;;;;;4.50;3.08;;;;;;;;;;5081736;28;20391;-74
2023/07/15 04:51:01;;;;;;;5.05;3.38;;;;;;;;;;5081512;28;20051;-74
2023/07/15 04:53:32;;;;;;;5.60;3.47;;;;;;;;;;5082304;28;20506;-72
2023/07/15 04:56:03;;;;;;;8.65;3.42;;;;;;;;;;5085528;28;20059;-73
2023/07/15 04:58:34;;;;;;;5.30;3.10;;;;;;;;;;5086011;28;20613;-73
2023/07/15 05:01:03;;;;;;;4.68;3.25;;;;;;;;;;5085295;28;20048;-72
2023/07/15 05:03:34;;;;;;;6.35;3.53;;;;;;;;;;5085462;28;20052;-73
2023/07/15 05:06:05;;;;;;;5.85;3.08;;;;;;;;;;5085851;28;20052;-74
2023/07/15 05:08:37;;;;;;;6.30;3.42;;;;;;;;;;5085316;28;20094;-73
2023/07/15 05:11:08;;;;;;;7.00;3.53;;;;;;;;;;5085218;28;20067;-72
2023/07/15 05:13:37;;;;;;;4.80;3.17;;;;;;;;;;5084977;28;20078;-74
2023/07/15 05:16:09;;;;;;;7.22;3.08;;;;;;;;;;5082695;28;20414;-72
2023/07/15 05:18:41;;;;;;;5.75;3.25;;;;;;;;;;5084611;28;20639;-74
2023/07/15 05:21:11;;;;;;;7.30;3.13;;;;;;;;;;5084722;28;20055;-72
2023/07/15 05:23:42;;;;;;;5.93;3.40;;;;;;;;;;5084671;28;20051;-73
2023/07/15 05:26:12;;;;;;;6.43;3.55;;;;;;;;;;5083648;28;20056;-72
2023/07/15 05:28:44;;;;;;;11.25;3.08;;;;;;;;;;5084552;28;20055;-72
2023/07/15 05:31:14;;;;;;;5.05;2.83;;;;;;;;;;5084594;28;21198;-73
2023/07/15 05:33:45;;;;;;;4.88;3.17;;;;;;;;;;5084058;28;20044;-73
2023/07/15 05:36:16;;;;;;;12.20;3.42;;;;;;;;;;5084549;28;20052;-74
2023/07/15 05:38:46;;;;;;;5.97;3.50;;;;;;;;;;5084253;28;20051;-74
2023/07/15 05:41:16;;;;;;;10.45;3.08;;;;;;;;;;5082662;28;20044;-73
2023/07/15 05:43:47;;;;;;;3.80;2.58;;;;;;;;;;5084489;28;20540;-73
2023/07/15 05:46:18;;;;;;;3.78;2.70;;;;;;;;;;5084300;28;20051;-73
2023/07/15 05:48:49;;;;;;;5.57;3.28;;;;;;;;;;5084233;28;20418;-73
2023/07/15 05:51:19;;;;;;;7.20;3.97;;;;;;;;;;5084266;28;20051;-73
2023/07/15 05:53:48;;;;;;;;;;;;;;;;;;5084878;28;20051;-74
2023/07/15 05:56:18;;;;;;;5.50;2.70;;;;;;;;;;5082621;28;20305;-74
2023/07/15 05:58:50;;;;;;;6.10;3.03;;;;;;;;;;5084304;28;20402;-73
2023/07/15 06:01:21;;;;;;;9.07;3.13;;;;;;;;;;5083753;28;20056;-74
2023/07/15 06:03:52;;;;;;;7.28;2.72;;;;;;;;;;5083344;28;20044;-73
2023/07/15 06:06:23;;;;;;;6.57;3.47;;;;;;;;;;5083582;28;20055;-74
2023/07/15 06:08:52;;;;;;;7.40;2.97;;;;;;;;;;5083742;28;20058;-73
2023/07/15 06:11:23;;;;;;;5.97;3.25;;;;;;;;;;5083765;28;20067;-73
2023/07/15 06:13:55;;;;;;;6.78;3.28;;;;;;;;;;5084222;28;20047;-73
2023/07/15 06:16:26;;;;;;;5.72;3.17;;;;;;;;;;5083549;28;20070;-73
2023/07/15 06:18:56;;;;;;;5.30;2.92;;;;;;;;;;5083400;28;20048;-73
2023/07/15 06:21:26;;;;;;;;;;;;;;;;;;5083950;28;20052;-74
2023/07/15 06:23:56;;;;;;;5.20;2.75;;;;;;;;;;5085390;28;19931;-73
2023/07/15 06:26:26;;;;;;;5.25;2.80;;;;;;;;;;5086964;28;20055;-74
2023/07/15 06:28:56;;;;;;;5.35;2.85;;;;;;;;;;5086739;28;20052;-73
2023/07/15 06:31:27;;;;;;;4.03;2.67;;;;;;;;;;5085723;28;20063;-73
2023/07/15 06:33:57;;;;;;;4.45;2.72;;;;;;;;;;5084431;28;20691;-74
2023/07/15 06:36:28;;;;;;;5.05;2.58;;;;;;;;;;5086058;28;20054;-74
2023/07/15 06:38:58;;;;;;;4.18;2.08;;;;;;;;;;5086518;28;20429;-72
2023/07/15 06:41:28;;;;;;;10.27;3.03;;;;;;;;;;5086150;28;20040;-73
2023/07/15 06:43:59;;;;;;;4.03;2.40;;;;;;;;;;5085680;28;20052;-73
2023/07/15 06:46:30;;;;;;;6.53;2.60;;;;;;;;;;5086055;28;20044;-73
2023/07/15 06:49:01;;;;;;;5.00;2.70;;;;;;;;;;5086165;28;20494;-74
2023/07/15 06:51:31;;;;;;;6.13;2.67;;;;;;;;;;5086163;28;20059;-73
2023/07/15 06:54:01;;;;;;;5.28;2.38;;;;;;;;;;5085849;28;20414;-74
2023/07/15 06:56:32;;;;;;;6.68;2.85;;;;;;;;;;5085769;28;20048;-74
2023/07/15 06:59:03;;;;;;;3.10;2.10;;;;;;;;;;5083532;28;20055;-72
2023/07/15 07:01:32;;;;;;;37.53;3.55;;;;;;;;;;5085916;28;20040;-72
2023/07/15 07:04:04;;;;;;;20.63;2.90;;;;;;;;;;5085693;28;20040;-72
2023/07/15 07:06:35;;;;;;;21.55;3.15;;;;;;;;;;5085301;28;20043;-73
2023/07/15 07:09:07;;;;;;;8.13;2.72;;;;;;;;;;5085472;28;20048;-72
2023/07/15 07:11:36;;;;;;;6.18;2.80;;;;;;;;;;5085743;28;20055;-73
2023/07/15 07:14:34;;;;;;;5.57;2.72;;;;;;;;;;5085416;28;20048;-73
2023/07/15 07:17:04;;;;;;;4.85;2.72;;;;;;;;;;5084538;28;20119;-74
2023/07/15 07:19:35;;;;;;;4.50;2.63;;;;;;;;;;5085264;28;20052;-74
2023/07/15 07:22:06;;;;;;;4.63;2.70;;;;;;;;;;5085101;28;20055;-74
2023/07/15 07:24:37;;;;;;;3.08;2.20;;;;;;;;;;5084838;28;20056;-73
2023/07/15 07:27:07;;;;;;;3.67;2.45;;;;;;;;;;5085986;28;20043;-74
2023/07/15 07:29:39;;;;;;;5.47;2.33;;;;;;;;;;5085031;28;20067;-74
2023/07/15 07:32:09;;;;;;;6.93;2.63;;;;;;;;;;5085580;28;20052;-73
2023/07/15 07:34:39;;;;;;;;;;;;;;;;;;5085474;28;20047;-74
2023/07/15 07:37:09;;;;;;;2.92;2.05;;;;;;;;;;5084774;28;19930;-74
2023/07/15 07:39:39;;;;;;;4.10;2.28;;;;;;;;;;5085224;28;20525;-73
2023/07/15 07:42:09;;;;;;;;;;;;;;;;;;5085513;28;20044;-74
2023/07/15 07:44:40;;;;;;;5.55;2.13;;;;;;;;;;5085193;28;19942;-74
2023/07/15 07:47:14;;;;;;;2.85;2.08;;;;;;;;;;5084738;28;20105;-73
2023/07/15 07:49:44;;;;;;;4.03;2.38;;;;;;;;;;5084845;28;20056;-72
2023/07/15 07:52:14;;;;;;;5.80;2.45;;;;;;;;;;5084840;28;20051;-73
2023/07/15 07:54:45;;;;;;;3.25;2.35;;;;;;;;;;5085131;28;20052;-73
2023/07/15 07:57:15;;;;;;;5.53;2.53;;;;;;;;;;5084545;28;20693;-74
2023/07/15 07:59:46;;;;;;;5.38;2.60;;;;;;;;;;5085027;28;20525;-74
2023/07/15 08:02:16;;;;;;;4.95;3.15;;;;;;;;;;5085453;28;20059;-73
2023/07/15 08:04:48;;;;;;;3.85;2.45;;;;;;;;;;5085265;28;20048;-74
2023/07/15 08:07:19;;;;;;;3.97;2.58;;;;;;;;;;5085014;28;20395;-73
2023/07/15 08:09:50;;;;;;;4.53;2.40;;;;;;;;;;5084619;28;20044;-73
2023/07/15 08:12:21;;;;;;;3.53;2.33;;;;;;;;;;5084638;28;20048;-73
2023/07/15 08:14:51;;;;;;;4.28;2.72;;;;;;;;;;5084619;28;20196;-75
2023/07/15 08:17:22;;;;;;;3.72;2.13;;;;;;;;;;5083555;28;20056;-73
2023/07/15 08:19:53;;;;;;;3.60;2.58;;;;;;;;;;5084653;28;20036;-73
2023/07/15 08:22:23;;;;;;;4.93;3.65;;;;;;;;;;5084340;28;20051;-74
2023/07/15 08:24:54;;;;;;;8.15;3.47;;;;;;;;;;5084564;28;20051;-75
2023/07/15 08:27:25;;;;;;;12.68;3.22;;;;;;;;;;5084680;28;20055;-74
2023/07/15 08:29:56;;;;;;;18.40;3.50;;;;;;;;;;5088634;28;20040;-73
2023/07/15 08:32:27;;;;;;;15.38;2.97;;;;;;;;;;5087715;28;20036;-75
2023/07/15 08:35:04;;;;;;;18.67;3.13;;;;;;;;;;5088213;28;20048;-74
2023/07/15 08:37:35;;;;;;;10.80;2.60;;;;;;;;;;5088035;28;20502;-75
2023/07/15 08:40:08;;;;;;;24.80;2.60;;;;;;;;;;5088629;28;20048;-74
2023/07/15 08:42:39;;;;;;;30.90;2.83;;;;;;;;;;5083414;28;20063;-74
2023/07/15 08:45:09;;;;;;;21.80;2.72;;;;;;;;;;5088618;28;20048;-74
2023/07/15 08:47:44;;;;;;;7.68;2.38;;;;;;;;;;5088158;28;20044;-75
2023/07/15 08:50:17;;;;;;;79.90;3.40;;;;;;;;;;5088411;28;20070;-73
2023/07/15 08:52:48;;;;;;;61.75;3.47;;;;;;;;;;5087998;28;20040;-74
2023/07/15 08:55:18;;;;;;;56.92;3.65;;;;;;;;;;5088072;28;20441;-75
2023/07/15 08:57:49;;;;;;;84.13;4.03;;;;;;;;;;5086798;28;20055;-74
2023/07/15 09:00:20;;;;;;;44.75;3.35;;;;;;;;;;5087691;28;20040;-74
2023/07/15 09:02:52;;;;;;;35.17;4.15;;;;;;;;;;5088454;28;20102;-75
2023/07/15 09:05:22;;;;;;;67.38;3.40;;;;;;;;;;5088007;28;20063;-73
2023/07/15 09:07:56;;;;;;;40.35;3.22;;;;;;;;;;5087708;28;20442;-75
2023/07/15 09:10:28;;;;;;;32.00;2.70;;;;;;;;;;5087428;28;20058;-75
2023/07/15 09:12:58;;;;;;;66.07;3.63;;;;;;;;;;5087665;28;20043;-75
2023/07/15 09:15:28;;;;;;;84.57;4.93;;;;;;;;;;5087438;28;20048;-74
2023/07/15 09:18:01;;;;;;;62.92;4.15;;;;;;;;;;5087377;28;20044;-75
2023/07/15 09:20:32;;;;;;;79.45;4.68;;;;;;;;;;5087660;28;20044;-75
2023/07/15 09:23:03;;;;;;;71.07;3.80;;;;;;;;;;5087732;28;20062;-73
2023/07/15 09:25:37;;;;;;;61.15;3.60;;;;;;;;;;5088053;28;20071;-74
2023/07/15 09:28:11;;;;;;;73.65;3.50;;;;;;;;;;5087096;28;20044;-74
2023/07/15 09:30:42;;;;;;;56.67;3.60;;;;;;;;;;5087289;28;20122;-74
2023/07/15 09:33:35;;;;;;;60.35;3.45;;;;;;;;;;5087425;28;20600;-76
2023/07/15 09:36:06;;;;;;;59.08;3.40;;;;;;;;;;5087263;28;20053;-75
2023/07/15 09:38:37;;;;;;;11.20;2.42;;;;;;;;;;5087183;28;20036;-75
2023/07/15 09:41:11;;;;;;;55.33;3.20;;;;;;;;;;5087227;28;20052;-74
2023/07/15 09:43:53;;;;;;;67.18;3.65;;;;;;;;;;5087151;28;20780;-74
2023/07/15 09:46:27;;;;;;;42.42;3.33;;;;;;;;;;5086955;28;20059;-74
2023/07/15 09:48:58;;;;;;;49.22;3.13;;;;;;;;;;5087316;28;20048;-75
2023/07/15 09:51:28;;;;;;;22.98;3.03;;;;;;;;;;5087282;28;20110;-74
2023/07/15 09:54:01;;;;;;;25.70;2.67;;;;;;;;;;5087662;28;20044;-75
2023/07/15 09:56:37;;;;;;;35.58;3.35;;;;;;;;;;5086913;28;20052;-75
2023/07/15 09:59:18;;;;;;;16.25;2.22;;;;;;;;;;5086810;28;20044;-75
2023/07/15 10:01:57;;;;;;;24.40;2.47;;;;;;;;;;5086987;28;20040;-74
2023/07/15 10:04:38;;;;;;;8.25;2.70;;;;;;;;;;5086922;28;20047;-74
2023/07/15 10:07:09;;;;;;;7.97;2.50;;;;;;;;;;5086430;28;20036;-78
2023/07/15 10:09:38;;;;;;;;;;;;;;;;;;5086736;28;20087;-74
2023/07/15 10:12:09;;;;;;;7.35;1.65;;;;;;;;;;5086204;28;20512;-74
2023/07/15 10:14:41;;;;;;;12.50;2.42;;;;;;;;;;5086203;28;20051;-75
2023/07/15 10:17:14;;;;;;;14.48;2.50;;;;;;;;;;5086223;28;20051;-74
2023/07/15 10:20:10;;;;;;;3.40;2.35;;;;;;;;;;5086401;28;20052;-73
2023/07/15 10:22:42;;;;;;;8.77;2.17;;;;;;;;;;5086393;28;20044;-77
2023/07/15 10:25:15;;;;;;;24.02;2.47;;;;;;;;;;5086557;28;20122;-74
2023/07/15 10:27:47;;;;;;;38.00;2.53;;;;;;;;;;5086464;28;20059;-75
2023/07/15 10:30:23;;;;;;;15.20;2.30;;;;;;;;;;5086022;28;20056;-73
2023/07/15 10:33:08;;;;;;;8.40;2.13;;;;;;;;;;5086117;28;20051;-74
2023/07/15 10:35:42;;;;;;;6.40;2.78;;;;;;;;;;5086104;28;20052;-74
2023/07/15 10:38:30;;;;;;;20.35;3.60;;;;;;;;;;5086141;28;20059;-75
2023/07/15 10:41:04;;;;;;;21.42;3.00;;;;;;;;;;5084916;28;20048;-80
2023/07/15 10:43:34;;;;;;;12.30;2.20;;;;;;;;;;5086261;28;20506;-75
2023/07/15 10:46:08;;;;;;;12.90;1.77;;;;;;;;;;5085488;28;20082;-81
2023/07/15 10:48:40;;;;;;;33.05;2.40;;;;;;;;;;5086033;28;20399;-74
2023/07/15 10:51:12;;;;;;;55.25;3.00;;;;;;;;;;5084808;28;20048;-75
2023/07/15 10:53:43;;;;;;;6.25;2.25;;;;;;;;;;5086147;28;20403;-75
2023/07/15 10:56:13;;;;;;;5.43;2.33;;;;;;;;;;5085804;28;20051;-76
2023/07/15 10:58:43;;;;;;;18.27;2.92;;;;;;;;;;5085107;28;20662;-74
2023/07/15 11:01:15;;;;;;;86.50;3.65;;;;;;;;;;5086157;28;20051;-75
2023/07/15 11:03:47;;;;;;;30.13;3.10;;;;;;;;;;5085429;28;20056;-75
2023/07/15 11:06:18;;;;;;;130.13;4.57;;;;;;;;;;5085608;28;20059;-74
2023/07/15 11:08:48;;;;;;;23.80;2.22;;;;;;;;;;5085429;28;20044;-74
2023/07/15 11:11:18;;;;;;;30.15;5.97;;;;;;;;;;5085034;28;20502;-74
2023/07/15 11:13:49;;;;;;;91.32;4.55;;;;;;;;;;5085757;28;20044;-74
2023/07/15 11:16:21;;;;;;;80.55;3.97;;;;;;;;;;5085523;28;20043;-74
2023/07/15 11:18:50;;;;;;;;;;;;;;;;;;5085794;28;20054;-74
2023/07/15 11:21:21;;;;;;;58.60;4.90;;;;;;;;;;5085248;28;19924;-75
2023/07/15 11:23:53;;;;;;;60.47;3.97;;;;;;;;;;5084930;28;20071;-76
2023/07/15 11:26:25;;;;;;;33.55;3.50;;;;;;;;;;5085108;28;20443;-74
2023/07/15 11:28:56;;;;;;;11.07;2.33;;;;;;;;;;5085332;28;20056;-78
2023/07/15 11:31:27;;;;;;;13.50;2.65;;;;;;;;;;5085176;28;20055;-75
2023/07/15 11:33:58;;;;;;;9.73;2.53;;;;;;;;;;5085229;28;20040;-77
2023/07/15 11:36:28;;;;;;;16.38;3.33;;;;;;;;;;5082529;28;20505;-75
2023/07/15 11:39:01;;;;;;;17.02;2.92;;;;;;;;;;5084874;28;20414;-77
2023/07/15 11:41:34;;;;;;;6.30;2.05;;;;;;;;;;5085071;28;20502;-75
2023/07/15 11:44:15;;;;;;;7.50;2.67;;;;;;;;;;5085042;28;20068;-76
2023/07/15 11:46:46;;;;;;;18.17;2.55;;;;;;;;;;5084902;28;20040;-74
2023/07/15 11:49:22;;;;;;;10.02;2.28;;;;;;;;;;5084419;28;20052;-73
2023/07/15 11:51:56;;;;;;;15.85;2.67;;;;;;;;;;5085343;28;20051;-75
2023/07/15 11:54:32;;;;;;;8.23;2.60;;;;;;;;;;5084623;28;20044;-75
2023/07/15 11:57:02;;;;;;;5.13;2.10;;;;;;;;;;5084686;28;20056;-74
2023/07/15 11:59:32;;;;;;;4.30;2.75;;;;;;;;;;5084800;28;20052;-75
2023/07/15 12:02:05;;;;;;;3.83;1.67;;;;;;;;;;5085633;28;20518;-75
2023/07/15 12:04:36;;;;;;;3.50;2.17;;;;;;;;;;5089322;28;20071;-78
2023/07/15 12:07:07;;;;;;;9.57;4.82;;;;;;;;;;5088867;28;20406;-75
2023/07/15 12:09:37;;;;;;;11.45;2.40;;;;;;;;;;5087744;28;20529;-75
2023/07/15 12:12:08;;;;;;;18.08;3.38;;;;;;;;;;5088944;28;20040;-74
2023/07/15 12:14:38;;;;;;;13.52;2.10;;;;;;;;;;5088786;28;20059;-75
2023/07/15 12:17:09;;;;;;;3.75;2.05;;;;;;;;;;5088417;28;20398;-75
2023/07/15 12:19:40;;;;;;;11.40;3.53;;;;;;;;;;5088983;28;20044;-75
2023/07/15 12:22:09;;;;;;;12.60;3.00;;;;;;;;;;5088882;28;20036;-74
2023/07/15 12:24:41;;;;;;;10.00;4.55;;;;;;;;;;5088734;28;20054;-75
2023/07/15 12:27:12;;;;;;;10.02;3.78;;;;;;;;;;5089195;28;20047;-74
2023/07/15 12:29:44;;;;;;;6.05;2.30;;;;;;;;;;5088412;28;20052;-75
2023/07/15 12:32:14;;;;;;;2.55;1.73;;;;;;;;;;5089288;28;20058;-75
2023/07/15 12:34:44;;;;;;;;;;;;;;;;;;5088609;28;20055;-74
2023/07/15 12:37:14;;;;;;;4.63;1.95;;;;;;;;;;5088791;28;19924;-73
2023/07/15 12:39:44;;;;;;;7.72;2.22;;;;;;;;;;5088308;28;20499;-76
2023/07/15 12:42:15;;;;;;;3.85;2.00;;;;;;;;;;5088325;28;20665;-75
2023/07/15 12:44:46;;;;;;;6.40;2.13;;;;;;;;;;5088138;28;20419;-76
2023/07/15 12:47:16;;;;;;;;;;;;;;;;;;5089225;28;20054;-75
2023/07/15 12:49:46;;;;;;;4.47;2.08;;;;;;;;;;5088776;28;19931;-76
2023/07/15 12:52:17;;;;;;;3.20;2.22;;;;;;;;;;5088356;28;20147;-76
2023/07/15 12:54:48;;;;;;;5.57;2.25;;;;;;;;;;5087649;28;20051;-76
2023/07/15 12:57:17;;;;;;;;;;;;;;;;;;5088150;28;20051;-78
2023/07/15 12:59:47;;;;;;;2.90;2.03;;;;;;;;;;5087092;28;19935;-76
2023/07/15 13:02:18;;;;;;;6.43;2.83;;;;;;;;;;5087513;28;20418;-74
2023/07/15 13:04:48;;;;;;;4.28;2.13;;;;;;;;;;5087367;28;20055;-74
2023/07/15 13:07:21;;;;;;;2.75;1.95;;;;;;;;;;5087283;28;20634;-75
2023/07/15 13:09:51;;;;;;;3.58;1.83;;;;;;;;;;5085820;28;20044;-75
2023/07/15 13:12:22;;;;;;;4.38;1.92;;;;;;;;;;5087689;28;20051;-75
2023/07/15 13:14:54;;;;;;;4.18;1.90;;;;;;;;;;5085845;28;20044;-75
2023/07/15 13:17:26;;;;;;;3.38;1.80;;;;;;;;;;5084867;28;20372;-75
2023/07/15 13:19:55;;;;;;;3.50;1.50;;;;;;;;;;5085789;28;20047;-75
2023/07/15 13:22:26;;;;;;;3.88;1.80;;;;;;;;;;5082955;28;20051;-77
2023/07/15 13:24:58;;;;;;;5.15;1.92;;;;;;;;;;5087513;28;20043;-75
2023/07/15 13:27:28;;;;;;;8.00;1.90;;;;;;;;;;5084752;28;20044;-75
2023/07/15 13:29:58;;;;;;;4.15;2.00;;;;;;;;;;5086791;28;20044;-75
2023/07/15 13:32:28;;;;;;;4.32;2.00;;;;;;;;;;5108428;27;20044;-75
2023/07/15 13:35:00;;;;;;;4.07;1.73;;;;;;;;;;5086365;28;20056;-75
2023/07/15 13:37:30;;;;;;;2.63;1.42;;;;;;;;;;5085559;28;20494;-76
2023/07/15 13:40:01;;;;;;;3.53;1.38;;;;;;;;;;5087023;28;20502;-75
2023/07/15 13:42:31;;;;;;;3.50;1.70;;;;;;;;;;5086434;28;20051;-75
2023/07/15 13:45:02;;;;;;;3.17;1.63;;;;;;;;;;5086636;28;20040;-77
2023/07/15 13:47:34;;;;;;;2.30;1.23;;;;;;;;;;5086428;28;20044;-75
2023/07/15 13:50:04;;;;;;;4.07;1.63;;;;;;;;;;5086400;28;20047;-78
2023/07/15 13:52:35;;;;;;;4.63;2.03;;;;;;;;;;5086265;28;20039;-76
2023/07/15 13:55:06;;;;;;;6.68;1.63;;;;;;;;;;5083818;28;20426;-76
2023/07/15 13:57:38;;;;;;;4.30;1.60;;;;;;;;;;5086434;28;20514;-76
2023/07/15 14:00:09;;;;;;;7.20;1.75;;;;;;;;;;5082454;28;20057;-76
2023/07/15 14:02:42;;;;;;;6.07;2.85;;;;;;;;;;5090819;28;20048;-76
2023/07/15 14:05:12;;;;;;;4.28;1.63;;;;;;;;;;5086454;28;20052;-79
2023/07/15 14:07:44;;;;;;;3.55;1.85;;;;;;;;;;5085433;28;20044;-76
2023/07/15 14:10:15;;;;;;;3.85;1.88;;;;;;;;;;5085804;28;20044;-77
2023/07/15 14:12:45;;;;;;;6.43;2.50;;;;;;;;;;5083090;28;20064;-76
2023/07/15 14:15:15;;;;;;;6.30;2.03;;;;;;;;;;5085460;28;20550;-76
2023/07/15 14:17:46;;;;;;;3.15;1.73;;;;;;;;;;5083347;28;20040;-77
2023/07/15 14:20:16;;;;;;;7.55;1.70;;;;;;;;;;5085712;28;20044;-77
2023/07/15 14:22:48;;;;;;;2.67;1.55;;;;;;;;;;5085397;28;20070;-76
2023/07/15 14:25:18;;;;;;;2.75;1.38;;;;;;;;;;5085586;28;20040;-77
2023/07/15 14:27:48;;;;;;;3.75;1.20;;;;;;;;;;5083380;28;20051;-76
2023/07/15 14:30:18;;;;;;;2.17;1.30;;;;;;;;;;5086137;28;20343;-77
2023/07/15 14:32:49;;;;;;;4.78;1.33;;;;;;;;;;5067956;28;20048;-77
2023/07/15 14:35:21;;;;;;;3.85;1.42;;;;;;;;;;5084927;28;20059;-77
2023/07/15 14:37:51;;;;;;;1.67;1.23;;;;;;;;;;5085001;28;20048;-77
2023/07/15 14:40:21;;;;;;;4.45;1.70;;;;;;;;;;5085325;28;20043;-77
2023/07/15 14:42:51;;;;;;;4.22;1.77;;;;;;;;;;5085023;28;20804;-77
2023/07/15 14:45:22;;;;;;;3.53;1.17;;;;;;;;;;5085863;28;20035;-76
2023/07/15 14:47:52;;;;;;;4.60;1.63;;;;;;;;;;5084937;28;20044;-77
2023/07/15 14:50:23;;;;;;;4.82;1.40;;;;;;;;;;5084988;28;20044;-77
2023/07/15 14:52:55;;;;;;;1.05;0.95;;;;;;;;;;5085207;28;20044;-76
2023/07/15 14:55:27;;;;;;;3.38;1.20;;;;;;;;;;5085126;28;20039;-77
2023/07/15 14:57:57;;;;;;;1.70;1.20;;;;;;;;;;5084726;28;20044;-77
2023/07/15 15:00:28;;;;;;;2.30;1.10;;;;;;;;;;5080333;28;20514;-76
2023/07/15 15:02:58;;;;;;;1.48;1.00;;;;;;;;;;5085722;28;20044;-77
2023/07/15 15:05:30;;;;;;;1.63;1.20;;;;;;;;;;5081752;28;20044;-77
2023/07/15 15:08:00;;;;;;;3.22;1.80;;;;;;;;;;5084695;28;20067;-77
2023/07/15 15:10:32;;;;;;;1.80;1.20;;;;;;;;;;5084724;28;20126;-77